RJCC Airport Information

Runway Information
Runway 01L Length 9840 ft width 200 ft
Elevation 62 ft Threshold 0 ft Heading 353
Runway 19R Length 9840 ft Width 200 ft
Elevation 82 ft Threshold 0 ft Heading 173
Runway 01R Length 9840 ft width 200 ft
Elevation 57 ft Threshold 0 ft Heading 353
Runway 19L Length 9840 ft Width 200 ft
Elevation 77 ft Threshold 0 ft Heading 173
Airport Frequencies
Type APP Name CHITOSE AP Frequency 120.1 MHZ
Type ATIS Name ATIS Frequency 128.6 MHZ
Type CLD Name CHITOSE CL Frequency 121.9 MHZ
Type DEP Name CHITOSE DE Frequency 124.7 MHZ
Type GND Name CHITOSE GN Frequency 121.6 MHZ
Type TCA Name TCA Frequency 127.7 MHZ
Type TWR Name CHITOSE TW Frequency 118.8 MHZ
Airport Navaids
Type VOR-DME Name Mukawa Frequency 116400 KHZ
Type NDB Name Naganuma Frequency 377 KHZ
Airport Weather Information & NOTAM
ADDS - METARS form results

(2348 UTC 19 October 2020)
Data provider http://aviationweather.gov/metar/data/
 
METAR text: RJCC 192330Z 17004KT 9999 FEW030 11/08 Q1024 RMK 1SC030 A3025
Conditions at: RJCC (CHITOSE (JASDF/C, JP) observed 2330 UTC 19 October 2020
Temperature: 11.0°C (52°F)
Dewpoint: 8.0°C (46°F) [RH = 82%]
Pressure (altimeter): 30.24 inches Hg (1024.0 mb)
Winds: from the S (170 degrees) at 5 MPH (4 knots; 2.1 m/s)
Visibility: 6 or more miles (10+ km)
Ceiling: at least 12,000 feet AGL
Clouds: few clouds at 3000 feet AGL
Weather: no significant weather observed at this time

METAR text: RJCC 192300Z VRB01KT 9999 FEW030 SCT060 08/06 Q1024 RMK 1SC030 3SC060 A3025
Conditions at: RJCC (CHITOSE (JASDF/C, JP) observed 2300 UTC 19 October 2020
Temperature: 8.0°C (46°F)
Dewpoint: 6.0°C (43°F) [RH = 87%]
Pressure (altimeter): 30.24 inches Hg (1024.0 mb)
Winds: variable direction winds at 1 MPH (1 knots; 0.5 m/s)
Visibility: 6 or more miles (10+ km)
Ceiling: at least 12,000 feet AGL
Clouds: few clouds at 3000 feet AGL
scattered clouds at 6000 feet AGL
Weather: no significant weather observed at this time

Forecast for: RJCC (CHITOSE (JASDF/C, JP)
Text: TAF RJCC 192305Z 2000/2106 35005KT 9999 FEW020
Forecast period: 0000 to 2100 UTC 20 October 2020
Forecast type: FROM: standard forecast or significant change
Winds: from the N (350 degrees) at 6 MPH (5 knots; 2.6 m/s)
Visibility: 6 or more miles (10+ km)
Ceiling: at least 12,000 feet AGL
Clouds: few clouds at 2000 feet AGL
Weather: no significant weather forecast for this period
Text: BECMG 2021/2100 17012KT
Forecast period: 2100 UTC 20 October 2020 to 0600 UTC 21 October 2020
Forecast type: BECOMING: Conditions expected to become as follows by 0000 UTC 21 October 2020
Winds: from the S (170 degrees) at 14 MPH (12 knots; 6.2 m/s)
Visibility: 6 or more miles (10+ km)
Ceiling: at least 12,000 feet AGL
Clouds: few clouds at 2000 feet AGL
Weather: no significant weather forecast for this period